sensor_id;sensor_type;location;lat;lon;timestamp;temperature;humidity
53878;DHT22;39790;53.144;6.424;2022-08-21T00:01:57;18.90;91.50
53878;DHT22;39790;53.144;6.424;2022-08-21T00:04:23;18.80;91.90
53878;DHT22;39790;53.144;6.424;2022-08-21T00:06:52;18.80;91.80
53878;DHT22;39790;53.144;6.424;2022-08-21T00:09:19;18.60;92.00
53878;DHT22;39790;53.144;6.424;2022-08-21T00:11:45;18.60;92.20
53878;DHT22;39790;53.144;6.424;2022-08-21T00:14:11;18.60;92.40
53878;DHT22;39790;53.144;6.424;2022-08-21T00:16:37;18.60;92.40
53878;DHT22;39790;53.144;6.424;2022-08-21T00:19:04;18.60;92.50
53878;DHT22;39790;53.144;6.424;2022-08-21T00:21:30;18.50;92.60
53878;DHT22;39790;53.144;6.424;2022-08-21T00:23:56;18.50;92.60
53878;DHT22;39790;53.144;6.424;2022-08-21T00:26:22;18.50;92.80
53878;DHT22;39790;53.144;6.424;2022-08-21T00:28:47;18.40;93.00
53878;DHT22;39790;53.144;6.424;2022-08-21T00:31:14;18.30;93.10
53878;DHT22;39790;53.144;6.424;2022-08-21T00:33:40;18.30;93.20
53878;DHT22;39790;53.144;6.424;2022-08-21T00:36:06;18.30;93.20
53878;DHT22;39790;53.144;6.424;2022-08-21T00:38:32;18.30;93.30
53878;DHT22;39790;53.144;6.424;2022-08-21T00:41:00;18.30;93.30
53878;DHT22;39790;53.144;6.424;2022-08-21T00:43:30;18.20;93.50
53878;DHT22;39790;53.144;6.424;2022-08-21T00:45:57;18.20;93.70
53878;DHT22;39790;53.144;6.424;2022-08-21T00:48:23;18.20;93.90
53878;DHT22;39790;53.144;6.424;2022-08-21T00:51:17;18.10;93.90
53878;DHT22;39790;53.144;6.424;2022-08-21T00:53:51;18.20;94.00
53878;DHT22;39790;53.144;6.424;2022-08-21T00:56:19;18.20;94.00
53878;DHT22;39790;53.144;6.424;2022-08-21T00:58:46;18.20;94.10
53878;DHT22;39790;53.144;6.424;2022-08-21T01:01:12;18.10;94.50
53878;DHT22;39790;53.144;6.424;2022-08-21T01:03:38;18.10;94.40
53878;DHT22;39790;53.144;6.424;2022-08-21T01:06:04;18.00;94.60
53878;DHT22;39790;53.144;6.424;2022-08-21T01:08:31;17.90;94.70
53878;DHT22;39790;53.144;6.424;2022-08-21T01:10:58;17.80;95.00
53878;DHT22;39790;53.144;6.424;2022-08-21T01:13:26;17.80;95.20
53878;DHT22;39790;53.144;6.424;2022-08-21T01:15:54;17.80;95.30
53878;DHT22;39790;53.144;6.424;2022-08-21T01:18:21;17.70;95.50
53878;DHT22;39790;53.144;6.424;2022-08-21T01:23:34;17.50;96.10
53878;DHT22;39790;53.144;6.424;2022-08-21T01:26:00;17.40;96.40
53878;DHT22;39790;53.144;6.424;2022-08-21T01:28:26;17.40;96.70
53878;DHT22;39790;53.144;6.424;2022-08-21T01:30:55;17.40;96.90
53878;DHT22;39790;53.144;6.424;2022-08-21T01:33:22;17.30;97.10
53878;DHT22;39790;53.144;6.424;2022-08-21T01:35:49;17.30;97.30
53878;DHT22;39790;53.144;6.424;2022-08-21T01:38:15;17.30;97.50
53878;DHT22;39790;53.144;6.424;2022-08-21T01:40:41;17.20;97.70
53878;DHT22;39790;53.144;6.424;2022-08-21T01:43:07;17.20;98.00
53878;DHT22;39790;53.144;6.424;2022-08-21T01:45:33;17.20;98.20
53878;DHT22;39790;53.144;6.424;2022-08-21T01:47:58;17.20;98.40
53878;DHT22;39790;53.144;6.424;2022-08-21T01:50:24;17.20;98.60
53878;DHT22;39790;53.144;6.424;2022-08-21T01:52:50;17.20;98.70
53878;DHT22;39790;53.144;6.424;2022-08-21T01:55:17;17.20;98.70
53878;DHT22;39790;53.144;6.424;2022-08-21T01:57:44;17.20;98.80
53878;DHT22;39790;53.144;6.424;2022-08-21T02:00:13;17.20;99.00
53878;DHT22;39790;53.144;6.424;2022-08-21T02:02:40;17.20;99.20
53878;DHT22;39790;53.144;6.424;2022-08-21T02:05:08;17.10;99.40
53878;DHT22;39790;53.144;6.424;2022-08-21T02:07:39;17.00;99.70
53878;DHT22;39790;53.144;6.424;2022-08-21T02:10:07;17.00;99.90
53878;DHT22;39790;53.144;6.424;2022-08-21T02:12:33;17.00;99.90
53878;DHT22;39790;53.144;6.424;2022-08-21T02:14:59;17.00;99.90
53878;DHT22;39790;53.144;6.424;2022-08-21T02:17:26;17.00;99.90
53878;DHT22;39790;53.144;6.424;2022-08-21T02:19:52;17.00;99.90
53878;DHT22;39790;53.144;6.424;2022-08-21T02:22:17;17.00;99.90
53878;DHT22;39790;53.144;6.424;2022-08-21T02:24:43;17.00;99.90
53878;DHT22;39790;53.144;6.424;2022-08-21T02:27:09;16.90;99.90
53878;DHT22;39790;53.144;6.424;2022-08-21T02:29:34;16.90;99.90
53878;DHT22;39790;53.144;6.424;2022-08-21T02:32:00;16.90;99.90
53878;DHT22;39790;53.144;6.424;2022-08-21T02:34:26;17.00;99.90
53878;DHT22;39790;53.144;6.424;2022-08-21T02:36:51;17.00;99.90
53878;DHT22;39790;53.144;6.424;2022-08-21T02:39:17;17.00;99.90
53878;DHT22;39790;53.144;6.424;2022-08-21T02:41:42;17.10;99.90
53878;DHT22;39790;53.144;6.424;2022-08-21T02:44:08;17.20;99.90
53878;DHT22;39790;53.144;6.424;2022-08-21T02:46:34;17.10;99.90
53878;DHT22;39790;53.144;6.424;2022-08-21T02:49:00;17.30;99.90
53878;DHT22;39790;53.144;6.424;2022-08-21T02:51:25;17.20;99.90
53878;DHT22;39790;53.144;6.424;2022-08-21T02:53:51;17.20;99.90
53878;DHT22;39790;53.144;6.424;2022-08-21T02:56:18;17.20;99.90
53878;DHT22;39790;53.144;6.424;2022-08-21T02:58:49;17.10;99.90
53878;DHT22;39790;53.144;6.424;2022-08-21T03:01:16;17.00;99.90
53878;DHT22;39790;53.144;6.424;2022-08-21T03:03:44;16.90;99.90
53878;DHT22;39790;53.144;6.424;2022-08-21T03:06:12;16.80;99.90
53878;DHT22;39790;53.144;6.424;2022-08-21T03:08:38;16.70;99.90
53878;DHT22;39790;53.144;6.424;2022-08-21T03:11:05;16.70;99.90
53878;DHT22;39790;53.144;6.424;2022-08-21T03:13:31;16.70;99.90
53878;DHT22;39790;53.144;6.424;2022-08-21T03:15:57;16.70;99.90
53878;DHT22;39790;53.144;6.424;2022-08-21T03:18:23;16.60;99.90
53878;DHT22;39790;53.144;6.424;2022-08-21T03:20:49;16.60;99.90
53878;DHT22;39790;53.144;6.424;2022-08-21T03:23:16;16.70;99.90
53878;DHT22;39790;53.144;6.424;2022-08-21T03:25:43;16.70;99.90
53878;DHT22;39790;53.144;6.424;2022-08-21T03:28:12;16.70;99.90
53878;DHT22;39790;53.144;6.424;2022-08-21T03:30:38;16.70;99.90
53878;DHT22;39790;53.144;6.424;2022-08-21T03:33:04;16.70;99.90
53878;DHT22;39790;53.144;6.424;2022-08-21T03:35:29;16.60;99.90
53878;DHT22;39790;53.144;6.424;2022-08-21T03:37:55;16.60;99.90
53878;DHT22;39790;53.144;6.424;2022-08-21T03:40:22;16.50;99.90
53878;DHT22;39790;53.144;6.424;2022-08-21T03:42:49;16.50;99.90
53878;DHT22;39790;53.144;6.424;2022-08-21T03:45:17;16.50;99.90
53878;DHT22;39790;53.144;6.424;2022-08-21T03:48:00;16.50;99.90
53878;DHT22;39790;53.144;6.424;2022-08-21T03:50:29;16.60;99.90
53878;DHT22;39790;53.144;6.424;2022-08-21T03:52:55;16.50;99.90
53878;DHT22;39790;53.144;6.424;2022-08-21T03:55:22;16.60;99.90
53878;DHT22;39790;53.144;6.424;2022-08-21T03:57:48;16.60;99.90
53878;DHT22;39790;53.144;6.424;2022-08-21T04:00:15;16.70;99.90
53878;DHT22;39790;53.144;6.424;2022-08-21T04:02:41;16.70;99.90
53878;DHT22;39790;53.144;6.424;2022-08-21T04:05:08;16.70;99.90
53878;DHT22;39790;53.144;6.424;2022-08-21T04:07:34;16.70;99.90
53878;DHT22;39790;53.144;6.424;2022-08-21T04:10:01;16.70;99.90
53878;DHT22;39790;53.144;6.424;2022-08-21T04:12:27;16.80;99.90
53878;DHT22;39790;53.144;6.424;2022-08-21T04:14:53;16.70;99.90
53878;DHT22;39790;53.144;6.424;2022-08-21T04:17:18;16.70;99.90
53878;DHT22;39790;53.144;6.424;2022-08-21T04:19:44;16.70;99.90
53878;DHT22;39790;53.144;6.424;2022-08-21T04:22:10;16.60;99.90
53878;DHT22;39790;53.144;6.424;2022-08-21T04:24:36;16.50;99.90
53878;DHT22;39790;53.144;6.424;2022-08-21T04:27:01;16.60;99.90
53878;DHT22;39790;53.144;6.424;2022-08-21T04:29:27;16.60;99.90
53878;DHT22;39790;53.144;6.424;2022-08-21T04:31:53;16.70;99.90
53878;DHT22;39790;53.144;6.424;2022-08-21T04:34:18;16.70;99.90
53878;DHT22;39790;53.144;6.424;2022-08-21T04:36:44;16.70;99.90
53878;DHT22;39790;53.144;6.424;2022-08-21T04:39:10;16.70;99.90
53878;DHT22;39790;53.144;6.424;2022-08-21T04:41:36;16.80;99.90
53878;DHT22;39790;53.144;6.424;2022-08-21T04:44:03;16.90;99.90
53878;DHT22;39790;53.144;6.424;2022-08-21T04:46:28;16.90;99.90
53878;DHT22;39790;53.144;6.424;2022-08-21T04:48:54;17.00;99.90
53878;DHT22;39790;53.144;6.424;2022-08-21T04:51:25;17.00;99.90
53878;DHT22;39790;53.144;6.424;2022-08-21T04:54:20;17.10;99.90
53878;DHT22;39790;53.144;6.424;2022-08-21T04:56:59;17.10;99.90
53878;DHT22;39790;53.144;6.424;2022-08-21T04:59:34;17.20;99.90
53878;DHT22;39790;53.144;6.424;2022-08-21T05:02:01;17.20;99.90
53878;DHT22;39790;53.144;6.424;2022-08-21T05:04:29;17.20;99.90
53878;DHT22;39790;53.144;6.424;2022-08-21T05:06:58;17.20;99.90
53878;DHT22;39790;53.144;6.424;2022-08-21T05:09:25;17.10;99.90
53878;DHT22;39790;53.144;6.424;2022-08-21T05:11:52;17.20;99.90
53878;DHT22;39790;53.144;6.424;2022-08-21T05:14:18;17.20;99.90
53878;DHT22;39790;53.144;6.424;2022-08-21T05:16:45;17.20;99.90
53878;DHT22;39790;53.144;6.424;2022-08-21T05:19:11;17.20;99.90
53878;DHT22;39790;53.144;6.424;2022-08-21T05:21:40;17.30;99.90
53878;DHT22;39790;53.144;6.424;2022-08-21T05:24:06;17.30;99.90
53878;DHT22;39790;53.144;6.424;2022-08-21T05:26:31;17.30;99.90
53878;DHT22;39790;53.144;6.424;2022-08-21T05:28:57;17.30;99.90
53878;DHT22;39790;53.144;6.424;2022-08-21T05:31:23;17.40;99.90
53878;DHT22;39790;53.144;6.424;2022-08-21T05:33:48;17.40;99.90
53878;DHT22;39790;53.144;6.424;2022-08-21T05:36:14;17.50;99.90
53878;DHT22;39790;53.144;6.424;2022-08-21T05:38:40;17.60;99.90
53878;DHT22;39790;53.144;6.424;2022-08-21T05:41:06;17.70;99.90
53878;DHT22;39790;53.144;6.424;2022-08-21T05:43:32;17.70;99.90
53878;DHT22;39790;53.144;6.424;2022-08-21T05:46:02;17.80;99.90
53878;DHT22;39790;53.144;6.424;2022-08-21T05:48:29;17.90;99.90
53878;DHT22;39790;53.144;6.424;2022-08-21T05:50:55;18.10;99.90
53878;DHT22;39790;53.144;6.424;2022-08-21T05:53:22;18.20;99.90
53878;DHT22;39790;53.144;6.424;2022-08-21T05:55:49;18.40;99.90
53878;DHT22;39790;53.144;6.424;2022-08-21T05:58:20;18.50;99.90
53878;DHT22;39790;53.144;6.424;2022-08-21T06:00:47;18.60;99.90
53878;DHT22;39790;53.144;6.424;2022-08-21T06:03:16;18.70;99.90
53878;DHT22;39790;53.144;6.424;2022-08-21T06:05:42;18.90;99.90
53878;DHT22;39790;53.144;6.424;2022-08-21T06:08:08;19.10;99.90
53878;DHT22;39790;53.144;6.424;2022-08-21T06:10:34;19.40;99.90
53878;DHT22;39790;53.144;6.424;2022-08-21T06:13:00;19.80;99.90
53878;DHT22;39790;53.144;6.424;2022-08-21T06:15:26;20.60;99.80
53878;DHT22;39790;53.144;6.424;2022-08-21T06:17:53;21.80;98.50
53878;DHT22;39790;53.144;6.424;2022-08-21T06:20:18;22.90;96.70
53878;DHT22;39790;53.144;6.424;2022-08-21T06:22:44;24.10;95.30
53878;DHT22;39790;53.144;6.424;2022-08-21T06:25:10;25.10;93.80
53878;DHT22;39790;53.144;6.424;2022-08-21T06:27:36;25.90;92.80
53878;DHT22;39790;53.144;6.424;2022-08-21T06:30:06;26.70;91.80
53878;DHT22;39790;53.144;6.424;2022-08-21T06:32:32;27.40;90.90
53878;DHT22;39790;53.144;6.424;2022-08-21T06:34:58;28.20;89.50
53878;DHT22;39790;53.144;6.424;2022-08-21T06:37:24;28.90;87.00
53878;DHT22;39790;53.144;6.424;2022-08-21T06:39:49;29.60;84.30
53878;DHT22;39790;53.144;6.424;2022-08-21T06:42:15;30.00;81.50
53878;DHT22;39790;53.144;6.424;2022-08-21T06:44:42;30.40;79.60
53878;DHT22;39790;53.144;6.424;2022-08-21T06:47:07;30.50;78.00
53878;DHT22;39790;53.144;6.424;2022-08-21T06:49:33;30.70;76.10
53878;DHT22;39790;53.144;6.424;2022-08-21T06:52:00;30.90;75.20
53878;DHT22;39790;53.144;6.424;2022-08-21T06:54:25;31.10;74.10
53878;DHT22;39790;53.144;6.424;2022-08-21T06:56:51;31.40;72.70
53878;DHT22;39790;53.144;6.424;2022-08-21T06:59:16;31.80;71.50
53878;DHT22;39790;53.144;6.424;2022-08-21T07:01:42;32.20;70.20
53878;DHT22;39790;53.144;6.424;2022-08-21T07:04:08;32.50;68.90
53878;DHT22;39790;53.144;6.424;2022-08-21T07:06:34;32.80;67.60
53878;DHT22;39790;53.144;6.424;2022-08-21T07:09:00;33.00;66.70
53878;DHT22;39790;53.144;6.424;2022-08-21T07:11:26;33.30;66.00
53878;DHT22;39790;53.144;6.424;2022-08-21T07:13:52;33.70;64.90
53878;DHT22;39790;53.144;6.424;2022-08-21T07:16:20;34.00;63.60
53878;DHT22;39790;53.144;6.424;2022-08-21T07:18:46;34.00;62.60
53878;DHT22;39790;53.144;6.424;2022-08-21T07:21:12;33.90;61.80
53878;DHT22;39790;53.144;6.424;2022-08-21T07:23:42;33.90;61.70
53878;DHT22;39790;53.144;6.424;2022-08-21T07:26:08;34.10;60.90
53878;DHT22;39790;53.144;6.424;2022-08-21T07:28:34;34.40;60.20
53878;DHT22;39790;53.144;6.424;2022-08-21T07:31:01;34.60;59.40
53878;DHT22;39790;53.144;6.424;2022-08-21T07:33:28;34.60;58.60
53878;DHT22;39790;53.144;6.424;2022-08-21T07:35:54;34.70;58.20
53878;DHT22;39790;53.144;6.424;2022-08-21T07:38:20;34.60;57.80
53878;DHT22;39790;53.144;6.424;2022-08-21T07:40:47;34.80;57.70
53878;DHT22;39790;53.144;6.424;2022-08-21T07:43:14;35.00;57.20
53878;DHT22;39790;53.144;6.424;2022-08-21T07:45:42;35.00;56.90
53878;DHT22;39790;53.144;6.424;2022-08-21T07:48:07;35.00;56.50
53878;DHT22;39790;53.144;6.424;2022-08-21T07:50:33;34.90;56.50
53878;DHT22;39790;53.144;6.424;2022-08-21T07:52:59;34.90;56.40
53878;DHT22;39790;53.144;6.424;2022-08-21T07:55:25;35.00;56.50
53878;DHT22;39790;53.144;6.424;2022-08-21T07:57:51;35.30;56.30
53878;DHT22;39790;53.144;6.424;2022-08-21T08:00:19;35.40;55.90
53878;DHT22;39790;53.144;6.424;2022-08-21T08:02:47;35.40;55.80
53878;DHT22;39790;53.144;6.424;2022-08-21T08:05:16;35.50;55.60
53878;DHT22;39790;53.144;6.424;2022-08-21T08:07:43;35.70;55.50
53878;DHT22;39790;53.144;6.424;2022-08-21T08:10:09;35.70;55.20
53878;DHT22;39790;53.144;6.424;2022-08-21T08:12:38;35.70;55.00
53878;DHT22;39790;53.144;6.424;2022-08-21T08:15:06;35.70;54.80
53878;DHT22;39790;53.144;6.424;2022-08-21T08:17:33;35.60;54.90
53878;DHT22;39790;53.144;6.424;2022-08-21T08:19:58;35.50;54.80
53878;DHT22;39790;53.144;6.424;2022-08-21T08:22:26;35.40;54.70
53878;DHT22;39790;53.144;6.424;2022-08-21T08:24:52;35.40;55.00
53878;DHT22;39790;53.144;6.424;2022-08-21T08:27:18;35.40;55.00
53878;DHT22;39790;53.144;6.424;2022-08-21T08:29:45;35.40;55.10
53878;DHT22;39790;53.144;6.424;2022-08-21T08:32:11;35.40;55.00
53878;DHT22;39790;53.144;6.424;2022-08-21T08:34:38;35.20;54.90
53878;DHT22;39790;53.144;6.424;2022-08-21T08:37:05;35.10;55.40
53878;DHT22;39790;53.144;6.424;2022-08-21T08:39:31;35.00;55.60
53878;DHT22;39790;53.144;6.424;2022-08-21T08:42:18;35.10;55.50
53878;DHT22;39790;53.144;6.424;2022-08-21T08:44:46;35.30;55.80
53878;DHT22;39790;53.144;6.424;2022-08-21T08:47:14;35.40;55.70
53878;DHT22;39790;53.144;6.424;2022-08-21T08:50:25;35.50;55.40
53878;DHT22;39790;53.144;6.424;2022-08-21T08:52:33;35.20;55.40
53878;DHT22;39790;53.144;6.424;2022-08-21T08:55:47;34.90;55.70
53878;DHT22;39790;53.144;6.424;2022-08-21T08:57:54;34.90;56.00
53878;DHT22;39790;53.144;6.424;2022-08-21T09:00:21;34.70;56.10
53878;DHT22;39790;53.144;6.424;2022-08-21T09:02:51;34.20;56.10
53878;DHT22;39790;53.144;6.424;2022-08-21T09:05:38;34.20;56.80
53878;DHT22;39790;53.144;6.424;2022-08-21T09:11:41;34.90;56.40
53878;DHT22;39790;53.144;6.424;2022-08-21T09:14:32;35.00;56.50
53878;DHT22;39790;53.144;6.424;2022-08-21T09:17:31;35.30;56.40
53878;DHT22;39790;53.144;6.424;2022-08-21T09:20:17;35.60;56.90
53878;DHT22;39790;53.144;6.424;2022-08-21T09:28:16;34.70;56.30
53878;DHT22;39790;53.144;6.424;2022-08-21T09:30:42;34.80;56.50
53878;DHT22;39790;53.144;6.424;2022-08-21T09:33:09;35.00;56.10
53878;DHT22;39790;53.144;6.424;2022-08-21T09:35:47;35.10;56.00
53878;DHT22;39790;53.144;6.424;2022-08-21T09:38:24;34.80;56.00
53878;DHT22;39790;53.144;6.424;2022-08-21T09:40:57;34.40;55.90
53878;DHT22;39790;53.144;6.424;2022-08-21T09:43:23;34.00;56.10
53878;DHT22;39790;53.144;6.424;2022-08-21T09:46:05;33.20;56.80
53878;DHT22;39790;53.144;6.424;2022-08-21T09:48:57;33.10;57.50
53878;DHT22;39790;53.144;6.424;2022-08-21T09:51:27;33.30;57.70
53878;DHT22;39790;53.144;6.424;2022-08-21T09:57:00;34.20;56.90
53878;DHT22;39790;53.144;6.424;2022-08-21T09:59:45;34.60;56.30
53878;DHT22;39790;53.144;6.424;2022-08-21T10:02:32;34.60;56.20
53878;DHT22;39790;53.144;6.424;2022-08-21T10:05:22;34.70;56.00
53878;DHT22;39790;53.144;6.424;2022-08-21T10:07:49;34.60;55.90
53878;DHT22;39790;53.144;6.424;2022-08-21T10:10:20;34.50;56.10
53878;DHT22;39790;53.144;6.424;2022-08-21T10:21:04;32.30;57.30
53878;DHT22;39790;53.144;6.424;2022-08-21T10:26:17;30.70;58.80
53878;DHT22;39790;53.144;6.424;2022-08-21T10:31:40;29.50;60.20
53878;DHT22;39790;53.144;6.424;2022-08-21T10:37:26;28.50;62.00
53878;DHT22;39790;53.144;6.424;2022-08-21T10:45:26;27.60;66.40
53878;DHT22;39790;53.144;6.424;2022-08-21T10:47:58;27.40;67.70
53878;DHT22;39790;53.144;6.424;2022-08-21T10:51:09;27.20;69.90
53878;DHT22;39790;53.144;6.424;2022-08-21T10:56:22;26.50;71.70
53878;DHT22;39790;53.144;6.424;2022-08-21T11:01:34;26.10;72.60
53878;DHT22;39790;53.144;6.424;2022-08-21T11:06:40;25.70;72.60
53878;DHT22;39790;53.144;6.424;2022-08-21T11:09:13;25.70;73.70
53878;DHT22;39790;53.144;6.424;2022-08-21T11:12:11;25.60;74.40
53878;DHT22;39790;53.144;6.424;2022-08-21T11:15:05;25.50;75.10
53878;DHT22;39790;53.144;6.424;2022-08-21T11:18:03;25.40;75.50
53878;DHT22;39790;53.144;6.424;2022-08-21T11:20:56;25.30;76.00
53878;DHT22;39790;53.144;6.424;2022-08-21T11:23:44;25.30;75.90
53878;DHT22;39790;53.144;6.424;2022-08-21T11:26:33;25.60;75.80
53878;DHT22;39790;53.144;6.424;2022-08-21T11:34:36;27.80;73.10
53878;DHT22;39790;53.144;6.424;2022-08-21T11:37:18;28.70;71.90
53878;DHT22;39790;53.144;6.424;2022-08-21T11:39:51;29.50;69.90
53878;DHT22;39790;53.144;6.424;2022-08-21T11:42:26;29.80;68.30
53878;DHT22;39790;53.144;6.424;2022-08-21T11:47:48;29.50;66.60
53878;DHT22;39790;53.144;6.424;2022-08-21T11:50:20;29.10;66.00
53878;DHT22;39790;53.144;6.424;2022-08-21T11:52:52;28.90;65.90
53878;DHT22;39790;53.144;6.424;2022-08-21T11:55:26;28.70;65.30
53878;DHT22;39790;53.144;6.424;2022-08-21T12:00:45;28.80;65.40
53878;DHT22;39790;53.144;6.424;2022-08-21T12:05:57;28.60;65.70
53878;DHT22;39790;53.144;6.424;2022-08-21T12:08:36;28.40;66.10
53878;DHT22;39790;53.144;6.424;2022-08-21T12:11:07;28.30;66.60
53878;DHT22;39790;53.144;6.424;2022-08-21T12:13:38;28.20;66.30
53878;DHT22;39790;53.144;6.424;2022-08-21T12:16:14;28.40;65.70
53878;DHT22;39790;53.144;6.424;2022-08-21T12:18:41;28.50;65.40
53878;DHT22;39790;53.144;6.424;2022-08-21T12:21:19;28.40;66.00
53878;DHT22;39790;53.144;6.424;2022-08-21T12:26:35;27.80;66.60
53878;DHT22;39790;53.144;6.424;2022-08-21T12:29:21;27.40;66.70
53878;DHT22;39790;53.144;6.424;2022-08-21T12:31:59;27.20;67.60
53878;DHT22;39790;53.144;6.424;2022-08-21T12:37:38;27.10;66.80
53878;DHT22;39790;53.144;6.424;2022-08-21T12:40:18;27.20;66.60
53878;DHT22;39790;53.144;6.424;2022-08-21T12:42:48;27.20;66.60
53878;DHT22;39790;53.144;6.424;2022-08-21T12:45:36;27.30;66.60
53878;DHT22;39790;53.144;6.424;2022-08-21T12:48:13;27.70;66.10
53878;DHT22;39790;53.144;6.424;2022-08-21T12:53:33;27.80;65.80
53878;DHT22;39790;53.144;6.424;2022-08-21T12:56:10;27.70;64.90
53878;DHT22;39790;53.144;6.424;2022-08-21T12:58:35;27.60;64.60
53878;DHT22;39790;53.144;6.424;2022-08-21T13:01:23;27.50;65.20
53878;DHT22;39790;53.144;6.424;2022-08-21T13:03:52;27.40;65.50
53878;DHT22;39790;53.144;6.424;2022-08-21T13:06:20;27.40;65.80
53878;DHT22;39790;53.144;6.424;2022-08-21T13:08:52;27.40;65.80
53878;DHT22;39790;53.144;6.424;2022-08-21T13:11:21;27.30;66.40
53878;DHT22;39790;53.144;6.424;2022-08-21T13:13:51;27.20;66.40
53878;DHT22;39790;53.144;6.424;2022-08-21T13:16:27;27.10;65.60
53878;DHT22;39790;53.144;6.424;2022-08-21T13:19:05;27.00;66.40
53878;DHT22;39790;53.144;6.424;2022-08-21T13:21:39;26.90;66.60
53878;DHT22;39790;53.144;6.424;2022-08-21T13:24:14;26.80;66.30
53878;DHT22;39790;53.144;6.424;2022-08-21T13:26:40;26.70;66.50
53878;DHT22;39790;53.144;6.424;2022-08-21T13:29:11;26.50;66.60
53878;DHT22;39790;53.144;6.424;2022-08-21T13:31:39;26.50;67.00
53878;DHT22;39790;53.144;6.424;2022-08-21T13:34:08;26.40;67.50
53878;DHT22;39790;53.144;6.424;2022-08-21T13:36:39;26.30;67.50
53878;DHT22;39790;53.144;6.424;2022-08-21T13:39:08;26.30;67.50
53878;DHT22;39790;53.144;6.424;2022-08-21T13:41:37;26.30;67.80
53878;DHT22;39790;53.144;6.424;2022-08-21T13:44:14;26.30;67.60
53878;DHT22;39790;53.144;6.424;2022-08-21T13:46:40;26.40;68.10
53878;DHT22;39790;53.144;6.424;2022-08-21T13:49:06;26.40;68.00
53878;DHT22;39790;53.144;6.424;2022-08-21T13:51:34;26.40;68.00
53878;DHT22;39790;53.144;6.424;2022-08-21T13:54:00;26.50;68.20
53878;DHT22;39790;53.144;6.424;2022-08-21T13:56:41;26.50;68.30
53878;DHT22;39790;53.144;6.424;2022-08-21T13:59:07;26.60;68.00
53878;DHT22;39790;53.144;6.424;2022-08-21T14:01:38;26.70;68.00
53878;DHT22;39790;53.144;6.424;2022-08-21T14:04:25;26.70;67.90
53878;DHT22;39790;53.144;6.424;2022-08-21T14:06:51;26.70;68.20
53878;DHT22;39790;53.144;6.424;2022-08-21T14:09:31;26.90;68.20
53878;DHT22;39790;53.144;6.424;2022-08-21T14:12:00;27.10;67.30
53878;DHT22;39790;53.144;6.424;2022-08-21T14:14:31;27.20;67.50
53878;DHT22;39790;53.144;6.424;2022-08-21T14:16:59;27.30;66.50
53878;DHT22;39790;53.144;6.424;2022-08-21T14:19:34;27.50;66.30
53878;DHT22;39790;53.144;6.424;2022-08-21T14:25:29;27.50;66.00
53878;DHT22;39790;53.144;6.424;2022-08-21T14:27:52;27.30;66.40
53878;DHT22;39790;53.144;6.424;2022-08-21T14:30:33;27.00;66.80
53878;DHT22;39790;53.144;6.424;2022-08-21T14:33:00;26.90;67.00
53878;DHT22;39790;53.144;6.424;2022-08-21T14:35:26;27.00;67.00
53878;DHT22;39790;53.144;6.424;2022-08-21T14:37:52;27.10;66.60
53878;DHT22;39790;53.144;6.424;2022-08-21T14:40:21;27.10;66.60
53878;DHT22;39790;53.144;6.424;2022-08-21T14:42:47;27.30;65.80
53878;DHT22;39790;53.144;6.424;2022-08-21T14:45:22;27.40;64.70
53878;DHT22;39790;53.144;6.424;2022-08-21T14:47:48;27.50;64.30
53878;DHT22;39790;53.144;6.424;2022-08-21T14:50:15;27.50;63.90
53878;DHT22;39790;53.144;6.424;2022-08-21T14:52:41;27.50;63.60
53878;DHT22;39790;53.144;6.424;2022-08-21T14:55:07;27.50;64.00
53878;DHT22;39790;53.144;6.424;2022-08-21T14:57:36;27.50;64.00
53878;DHT22;39790;53.144;6.424;2022-08-21T15:00:04;27.50;63.80
53878;DHT22;39790;53.144;6.424;2022-08-21T15:02:30;27.50;64.00
53878;DHT22;39790;53.144;6.424;2022-08-21T15:04:55;27.50;63.90
53878;DHT22;39790;53.144;6.424;2022-08-21T15:07:21;27.50;64.20
53878;DHT22;39790;53.144;6.424;2022-08-21T15:09:46;27.50;64.20
53878;DHT22;39790;53.144;6.424;2022-08-21T15:12:13;27.30;64.30
53878;DHT22;39790;53.144;6.424;2022-08-21T15:14:41;27.40;64.50
53878;DHT22;39790;53.144;6.424;2022-08-21T15:17:09;27.40;63.90
53878;DHT22;39790;53.144;6.424;2022-08-21T15:19:35;27.30;63.70
53878;DHT22;39790;53.144;6.424;2022-08-21T15:22:01;27.20;64.60
53878;DHT22;39790;53.144;6.424;2022-08-21T15:24:26;27.10;64.90
53878;DHT22;39790;53.144;6.424;2022-08-21T15:26:53;27.10;65.70
53878;DHT22;39790;53.144;6.424;2022-08-21T15:29:20;27.10;65.20
53878;DHT22;39790;53.144;6.424;2022-08-21T15:31:52;27.10;65.20
53878;DHT22;39790;53.144;6.424;2022-08-21T15:34:19;27.20;64.90
53878;DHT22;39790;53.144;6.424;2022-08-21T15:36:45;27.10;64.90
53878;DHT22;39790;53.144;6.424;2022-08-21T15:39:10;27.00;64.50
53878;DHT22;39790;53.144;6.424;2022-08-21T15:41:36;26.90;64.20
53878;DHT22;39790;53.144;6.424;2022-08-21T15:44:02;26.80;64.70
53878;DHT22;39790;53.144;6.424;2022-08-21T15:46:27;26.70;65.00
53878;DHT22;39790;53.144;6.424;2022-08-21T15:48:53;26.70;65.70
53878;DHT22;39790;53.144;6.424;2022-08-21T15:51:18;26.60;65.90
53878;DHT22;39790;53.144;6.424;2022-08-21T15:53:45;26.50;66.20
53878;DHT22;39790;53.144;6.424;2022-08-21T15:56:21;26.50;66.40
53878;DHT22;39790;53.144;6.424;2022-08-21T15:58:52;26.30;66.60
53878;DHT22;39790;53.144;6.424;2022-08-21T16:01:19;26.20;67.10
53878;DHT22;39790;53.144;6.424;2022-08-21T16:03:49;26.10;67.20
53878;DHT22;39790;53.144;6.424;2022-08-21T16:06:15;25.80;67.40
53878;DHT22;39790;53.144;6.424;2022-08-21T16:08:41;25.80;68.20
53878;DHT22;39790;53.144;6.424;2022-08-21T16:11:06;25.70;68.90
53878;DHT22;39790;53.144;6.424;2022-08-21T16:13:37;25.60;68.80
53878;DHT22;39790;53.144;6.424;2022-08-21T16:16:04;25.60;68.80
53878;DHT22;39790;53.144;6.424;2022-08-21T16:18:31;25.50;69.20
53878;DHT22;39790;53.144;6.424;2022-08-21T16:20:57;25.40;70.00
53878;DHT22;39790;53.144;6.424;2022-08-21T16:23:23;25.40;70.00
53878;DHT22;39790;53.144;6.424;2022-08-21T16:25:49;25.40;69.90
53878;DHT22;39790;53.144;6.424;2022-08-21T16:28:17;25.30;69.90
53878;DHT22;39790;53.144;6.424;2022-08-21T16:30:45;25.20;69.90
53878;DHT22;39790;53.144;6.424;2022-08-21T16:33:24;25.30;70.20
53878;DHT22;39790;53.144;6.424;2022-08-21T16:35:51;25.20;70.20
53878;DHT22;39790;53.144;6.424;2022-08-21T16:38:17;25.20;70.50
53878;DHT22;39790;53.144;6.424;2022-08-21T16:40:43;25.20;70.70
53878;DHT22;39790;53.144;6.424;2022-08-21T16:43:09;25.10;70.80
53878;DHT22;39790;53.144;6.424;2022-08-21T16:45:35;25.10;70.70
53878;DHT22;39790;53.144;6.424;2022-08-21T16:48:01;25.00;70.80
53878;DHT22;39790;53.144;6.424;2022-08-21T16:50:29;25.00;71.00
53878;DHT22;39790;53.144;6.424;2022-08-21T16:52:54;24.90;70.90
53878;DHT22;39790;53.144;6.424;2022-08-21T16:55:20;24.80;71.10